ACT        NSW        VIC        QLD        SA        WA        TAS        NT        INFO        CALC            by VK5ZD

  Atmospheric Gas Attenuation - ITU Rec 676-11   --------------- db/100km ---------------
TAS Stations Date Time Temp RH % AH g/m3 Dew Point Wind Direction Speed kph Gust kph Barometer mB Rainfall Since 9am 24GHz 47GHz 76GHz 122GHz 134GHz 241GHz
Bushy Park 03 08:00 14.6 57 7.13 6.2 17 26 1013.1 13.2 16.4 23.4 33.7 88.2 78.7 269.6
Butlers Gorge 03 08:00 8.9 68 5.96 3.3 6 13 1013.1 1.4 14.1 23.0 31.6 82.4 69.4 236.1
Campania 03 08:00 14.4 63 7.79 7.5 15 24 1013.1 1 17.8 24.4 36.3 95.2 87.2 299.3
Cape Bruny Aws 03 08:00 12.1 71 7.61 7 17 24 1016.1 0 17.5 24.9 36.8 96.4 87.7 300.6
Cape Grim 03 08:00 13.1 74 8.44 8.6 32 41 1018.3 0.6 19.3 26.0 39.7 104.2 97.6 335.5
Cape Sorell 03 08:00 13.2 68 7.81 7.4 17 22 1013.1 0.4 17.9 24.8 36.9 96.8 88.8 304.7
Cressy 03 08:00 13.3 69 7.97 7.7 6 9 1013.1 1.8 18.3 25.0 37.5 98.4 90.7 311.6
Davey Gorge (Pws) 03 07:30 12.7 59 6.57 4.9 13 17 1013.1 2.6 15.3 23.0 32.4 84.7 73.6 251.4
Dennes Point 03 08:00 13.8 58 6.91 5.7 32 41 1015.6 23.6 16.0 23.3 33.3 87.1 76.9 263.2
Devonport Airport 03 08:00 15.3 57 7.44 6.8 7 13 1016.4 2.2 17.0 23.8 34.7 90.9 82.1 281.4
Dove River (Pws) 03 07:50 5.2 84 5.79 2.8 26 32 1013.1 1 13.9 23.7 32.4 84.6 70.5 239.5
Dunalley 03 08:00 13.9 67 8.03 7.9 33 39 1015.7 5.4 18.4 25.0 37.6 98.5 91.0 312.6
Flinders Island Airport 03 08:00 16.2 72 9.93 11.2 33 41 1016.2 0.4 22.3 27.5 44.0 115.8 113.1 390.2
Friendly Beaches 03 08:00 15.6 57 7.58 7.1 11 20 1015.7 4.8 17.3 23.9 35.1 91.9 83.4 286.2
Grove 03 08:00 14.3 59 7.25 6.4 7 13 1013.1 18.8 16.7 23.6 34.3 89.8 80.5 275.8
Hartz Mountains 03 08:00 5.6 95 6.72 4.9 26 39 1013.1 1.2 15.9 25.1 36.0 94.3 82.7 282.3
Hobart 03 08:00 15.3 59 7.7 7.3 13 17 1015.7 31.2 17.6 24.1 35.7 93.4 85.2 292.6
Hobart Airport 03 08:00 14.3 60 7.37 6.6 9 11 1016.1 23.2 16.9 23.9 34.9 91.3 82.2 281.8
King Island Airport 03 08:00 13.9 75 8.99 9.5 19 26 1019.3 1.2 20.4 26.7 41.6 109.2 104.0 357.9
Kunanyi / Mount Wellington 03 08:00 2.7 86 5.02 0.6 52 61 1013.1 41 12.3 23.1 30.3 78.9 62.4 210.7
Larapuna (Eddystone Point) 03 08:00 16.4 83 11.58 13.5 26 35 1015.5 0.8 25.8 30.2 50.8 133.9 135.4 468.3
Launceston 03 08:00 15.2 62 8.05 8 2 4 1013.1 4.6 18.4 24.6 37.0 96.9 89.6 307.8
Launceston Airport 03 08:00 14.7 60 7.55 7 13 17 1015.2 3.8 17.3 24.1 35.4 92.6 84.0 288.1
Liawenee 03 08:00 7.5 68 5.45 2 24 32 1014.3 1.4 13.1 22.6 30.2 78.7 64.2 217.6
Low Head 03 08:00 15.3 65 8.49 8.8 22 26 1015.7 10.2 19.3 25.4 38.7 101.6 95.3 327.8
Low Rocky Point 03 08:00 12.2 65 7.01 5.8 28 35 1017.4 0.6 16.3 24.0 34.5 90.1 79.9 273.4
Luncheon Hill 03 08:00 10.1 95 8.99 9.3 19 24 1013.1 0.8 20.6 27.7 43.4 113.9 108.7 374.0
Maatsuyker Island 03 08:00 10.8 63 6.23 4 46 54 1015.7 0.6 14.7 23.1 32.0 83.5 71.3 243.0
Macquarie Island 03 08:00 7.7 91 7.38 6.3 46 61 1000.4 0.4 17.3 25.2 37.2 97.7 88.4 302.9
Maria Island 03 08:00 13.3 83 9.59 10.5 20 24 1015.7 1.8 21.7 27.8 44.2 116.3 112.7 388.3
Mount Read 03 08:00 3.2 100 6.03 3.2 24 30 1015.3 4.2 14.5 24.7 34.3 89.6 75.8 257.7
Ouse 03 08:00 12.9 66 7.44 6.7 11 15 1016.7 20.4 17.2 24.4 35.8 93.7 84.6 290.1
Pws A 03 04:00 9.3 97 8.72 8.9 9 13 1013.1 1 20.1 27.4 42.6 112.0 106.0 364.5
Pws C 03 07:50 13.3 58 6.7 5.2 19 24 1013.1 2.8 15.6 23.0 32.6 85.3 74.6 255.2
Scotts Peak 03 08:00 10 82 7.71 7.1 22 33 1013.1 1.2 17.9 25.5 38.1 99.7 91.2 312.7
Scottsdale 03 08:00 12.7 97 10.8 12.2 6 9 1015.4 11.8 24.4 30.1 49.8 131.1 130.7 451.4
Sheffield 03 08:00 12.5 58 6.38 4.5 22 43 1015.1 4 14.9 22.8 31.8 83.1 71.6 244.2
Smithton 03 08:00 13.5 77 9.01 9.6 22 28 1018.1 0 20.5 26.8 41.8 109.8 104.7 360.4
St Helens 03 08:00 15.6 68 9.04 9.7 15 28 1015.6 2 20.4 26.2 40.8 107.0 102.1 351.5
Strahan 03 08:00 13.2 74 8.5 8.7 15 20 1018.1 4.2 19.4 26.1 39.9 104.7 98.2 337.8
Swan Island 03 08:00 15.4 95 12.48 14.6 7 22 1015.6 1.2 27.8 32.1 55.5 146.3 150.3 520.2
Tasman Island 03 08:00 10.5 85 8.25 8.1 15 48 1014.7 11.8 19.0 26.3 40.1 105.2 98.0 336.7
Tfs B 03 07:50 13.3 70 8.09 8 11 15 1013.1 10.8 18.5 25.2 38.0 99.6 92.3 317.1
Tfs D 03 07:50 14.6 55 6.88 5.7 7 15 1013.1 1.8 15.9 23.0 32.8 85.7 75.6 258.8
Tunnack 03 08:00 11.3 71 7.24 6.2 15 22 1015.4 2.8 16.8 24.5 35.7 93.3 83.7 286.5
Warra 03 08:00 9.3 69 6.2 3.9 17 32 1013.1 1.6 14.6 23.3 32.3 84.5 72.1 245.7
Wynyard 03 08:00 14 64 7.72 7.3 24 32 1016.6 2.8 17.7 24.6 36.4 95.3 87.0 298.5

Last Refresh: 03-Dec-2021 07:38:22

Bureau of Meteorology